Time;durP1;ratioP1;P1;durP2;ratioP2;P2;SDS_P1;SDS_P2;PMS_P1;PMS_P2;Temp;Humidity;BMP_temperature;BMP_pressure;BME280_temperature;BME280_humidity;BME280_pressure;Samples;Min_cycle;Max_cycle;Signal;HPM_P1;HPM_P2
2021/12/16 00:04:22;;;;;;;32.23;21.97;;;11.80;99.90;;;;;;4957707;28;20526;-84
2021/12/16 00:09:28;;;;;;;30.70;19.63;;;11.70;99.90;;;;;;4907161;28;21776;-87
2021/12/16 00:29:03;;;;;;;33.10;21.03;;;11.80;99.90;;;;;;4950788;28;20463;-84
2021/12/16 00:34:03;;;;;;;27.87;20.20;;;12.10;99.90;;;;;;4953027;28;20952;-84
2021/12/16 00:36:35;;;;;;;28.13;20.37;;;11.80;99.90;;;;;;4956464;28;21376;-86
2021/12/16 00:39:10;;;;;;;31.43;21.30;;;11.60;99.90;;;;;;4955353;28;20452;-84
2021/12/16 00:41:39;;;;;;;34.00;21.10;;;11.50;99.90;;;;;;4954057;28;20499;-86
2021/12/16 00:44:23;;;;;;;30.27;20.10;;;11.50;99.90;;;;;;4952982;28;20897;-86
2021/12/16 00:47:01;;;;;;;29.80;20.00;;;11.40;99.90;;;;;;4954879;28;20475;-85
2021/12/16 00:49:35;;;;;;;31.93;22.10;;;11.40;99.90;;;;;;4946495;28;21601;-83
2021/12/16 00:57:56;;;;;;;33.20;23.97;;;12.20;99.90;;;;;;4955852;28;20468;-87
2021/12/16 01:00:26;;;;;;;31.30;20.77;;;12.20;99.90;;;;;;4957830;28;20455;-84
2021/12/16 01:03:13;;;;;;;34.43;22.67;;;12.10;99.90;;;;;;4902609;28;21402;-82
2021/12/16 01:48:00;;;;;;;34.97;21.80;;;11.60;99.90;;;;;;4959783;28;20980;-87
2021/12/16 01:50:33;;;;;;;34.63;20.70;;;12.10;99.90;;;;;;4969566;28;20464;-86
2021/12/16 01:53:21;;;;;;;30.50;20.60;;;12.10;99.90;;;;;;4976768;28;20459;-86
2021/12/16 01:56:28;;;;;;;30.90;20.40;;;12.00;99.90;;;;;;4983849;28;20553;-86
2021/12/16 01:59:01;;;;;;;34.80;21.70;;;12.00;99.90;;;;;;4987568;28;20526;-86
2021/12/16 02:01:34;;;;;;;39.00;24.30;;;12.00;99.90;;;;;;4976180;28;20525;-86
2021/12/16 02:04:15;;;;;;;35.80;23.17;;;12.00;99.90;;;;;;4956550;28;20468;-86
2021/12/16 02:07:10;;;;;;;37.03;23.40;;;12.10;99.90;;;;;;4929895;28;20502;-85
2021/12/16 02:09:42;;;;;;;34.90;21.70;;;12.00;99.90;;;;;;4961762;28;20502;-87
2021/12/16 02:12:44;;;;;;;39.90;23.80;;;12.10;99.90;;;;;;4962743;28;21418;-88
2021/12/16 02:29:48;;;;;;;32.03;21.90;;;11.90;99.90;;;;;;4883414;28;20497;-85
2021/12/16 02:37:49;;;;;;;30.50;20.57;;;11.80;99.90;;;;;;4971061;28;20539;-85
2021/12/16 02:40:26;;;;;;;30.47;21.27;;;11.50;99.90;;;;;;4967871;28;20487;-86
2021/12/16 02:43:24;;;;;;;30.53;21.57;;;11.50;99.90;;;;;;4969835;28;20452;-86
2021/12/16 02:48:54;;;;;;;30.33;21.10;;;11.80;99.90;;;;;;4968812;28;20564;-86
2021/12/16 02:51:28;;;;;;;32.40;22.47;;;11.90;99.90;;;;;;4973234;28;20514;-83
2021/12/16 02:54:00;;;;;;;34.50;22.50;;;11.80;99.90;;;;;;4965350;28;20505;-84
2021/12/16 02:56:28;;;;;;;36.20;23.30;;;12.00;99.90;;;;;;4962452;28;20503;-83
2021/12/16 02:58:56;;;;;;;31.00;22.33;;;12.10;99.90;;;;;;4961968;28;22083;-84
2021/12/16 03:01:46;;;;;;;32.90;22.50;;;11.90;99.90;;;;;;4968228;28;20459;-85
2021/12/16 03:04:28;;;;;;;37.20;25.40;;;12.00;99.90;;;;;;4960223;28;20452;-83
2021/12/16 03:06:57;;;;;;;30.40;22.17;;;12.10;99.90;;;;;;4963580;28;21401;-84
2021/12/16 03:10:01;;;;;;;34.33;23.63;;;12.00;99.90;;;;;;4964832;28;20451;-84
2021/12/16 03:12:39;;;;;;;31.90;21.80;;;11.80;99.90;;;;;;4961994;28;20539;-83
2021/12/16 03:20:40;;;;;;;31.90;21.80;;;12.00;99.90;;;;;;4985789;28;20479;-83
2021/12/16 03:26:06;;;;;;;34.87;23.00;;;11.60;99.90;;;;;;4990344;28;20490;-84
2021/12/16 03:29:12;;;;;;;33.50;23.90;;;11.60;99.90;;;;;;4965402;28;20474;-84
2021/12/16 03:36:50;;;;;;;34.57;22.93;;;11.60;99.90;;;;;;4985043;28;20610;-81
2021/12/16 03:39:20;;;;;;;39.07;26.73;;;11.50;99.90;;;;;;4982359;28;21844;-83
2021/12/16 03:41:53;;;;;;;48.33;26.50;;;11.40;99.90;;;;;;4966637;28;20599;-85
2021/12/16 03:44:32;;;;;;;42.27;25.00;;;11.30;99.90;;;;;;4966144;28;20447;-84
2021/12/16 03:47:09;;;;;;;36.87;23.47;;;11.30;99.90;;;;;;4963124;28;20483;-86
2021/12/16 03:49:43;;;;;;;38.67;25.30;;;11.60;99.90;;;;;;4964064;28;20451;-83
2021/12/16 03:52:11;;;;;;;40.83;25.43;;;11.90;99.90;;;;;;4975496;28;20455;-85
2021/12/16 03:55:07;;;;;;;39.63;24.57;;;12.00;99.90;;;;;;4985562;28;20466;-83
2021/12/16 03:57:39;;;;;;;35.10;22.80;;;12.00;99.90;;;;;;5055106;23;20512;-84
2021/12/16 04:00:26;;;;;;;37.00;23.50;;;11.90;99.90;;;;;;4950502;28;20441;-84
2021/12/16 04:02:53;;;;;;;33.13;23.80;;;11.80;99.90;;;;;;4943531;28;20504;-85
2021/12/16 04:05:49;;;;;;;39.90;25.53;;;11.70;99.90;;;;;;4930659;28;21231;-86
2021/12/16 04:08:31;;;;;;;35.33;23.77;;;11.60;99.90;;;;;;4926673;28;20463;-83
2021/12/16 04:11:17;;;;;;;39.33;25.20;;;11.70;99.90;;;;;;4933637;28;20497;-84
2021/12/16 04:13:57;;;;;;;48.63;27.70;;;11.70;99.90;;;;;;4935655;28;21430;-87
2021/12/16 04:16:48;;;;;;;38.97;25.83;;;11.60;99.90;;;;;;4942754;28;20481;-84
2021/12/16 04:19:33;;;;;;;36.17;24.77;;;11.50;99.90;;;;;;4928851;28;20429;-84
2021/12/16 04:22:11;;;;;;;40.00;26.20;;;11.30;99.90;;;;;;4930545;28;20542;-86
2021/12/16 04:24:42;;;;;;;46.10;26.90;;;11.30;99.90;;;;;;4932955;28;20904;-86
2021/12/16 04:27:16;;;;;;;40.90;27.27;;;11.30;99.90;;;;;;4927009;28;20473;-85
2021/12/16 04:29:50;;;;;;;40.67;25.63;;;11.30;99.90;;;;;;4929389;28;20532;-85
2021/12/16 04:32:20;;;;;;;38.70;26.57;;;11.60;99.90;;;;;;4915790;28;20645;-86
2021/12/16 04:34:57;;;;;;;44.37;27.87;;;11.50;99.90;;;;;;4926803;28;20535;-84
2021/12/16 04:37:24;;;;;;;37.63;26.17;;;11.40;99.90;;;;;;4925600;28;20499;-83
2021/12/16 04:39:54;;;;;;;44.67;27.50;;;11.30;99.90;;;;;;4931319;28;20467;-84
2021/12/16 04:42:25;;;;;;;43.13;28.30;;;11.60;99.90;;;;;;4930316;28;21411;-86
2021/12/16 04:44:52;;;;;;;36.60;26.00;;;11.90;99.90;;;;;;4924806;28;20496;-83
2021/12/16 04:47:19;;;;;;;41.10;26.00;;;12.10;99.90;;;;;;4927103;28;21110;-86
2021/12/16 04:49:47;;;;;;;41.20;27.43;;;12.10;99.90;;;;;;4926340;28;20488;-86
2021/12/16 04:52:17;;;;;;;36.07;24.40;;;12.00;99.90;;;;;;4935138;28;20470;-85
2021/12/16 04:54:45;;;;;;;47.03;27.57;;;12.00;99.90;;;;;;4926912;28;20460;-85
2021/12/16 04:57:12;;;;;;;40.10;26.57;;;11.90;99.90;;;;;;4927152;28;21260;-85
2021/12/16 04:59:40;;;;;;;33.93;23.30;;;11.80;99.90;;;;;;4926610;28;20499;-85
2021/12/16 05:02:10;;;;;;;36.50;25.37;;;11.70;99.90;;;;;;4930815;28;20556;-85
2021/12/16 05:04:39;;;;;;;40.63;24.93;;;11.60;99.90;;;;;;4929379;28;20458;-85
2021/12/16 05:07:06;;;;;;;40.00;24.40;;;11.60;99.90;;;;;;4929105;28;20495;-87
2021/12/16 05:12:01;;;;;;;40.53;24.30;;;11.50;99.90;;;;;;4931824;28;20495;-86
2021/12/16 05:14:28;;;;;;;36.60;24.83;;;11.30;99.90;;;;;;4924496;28;20497;-86
2021/12/16 05:16:56;;;;;;;41.20;26.03;;;11.10;99.90;;;;;;4963071;23;20509;-86
2021/12/16 05:19:24;;;;;;;37.10;24.97;;;11.10;99.90;;;;;;4969015;28;20464;-85
2021/12/16 05:24:54;;;;;;;42.20;25.77;;;11.00;99.90;;;;;;4970246;28;20535;-83
2021/12/16 05:27:23;;;;;;;42.50;26.83;;;11.10;99.90;;;;;;4947567;28;20480;-83
2021/12/16 05:29:52;;;;;;;36.63;25.20;;;11.30;99.90;;;;;;4891278;28;20463;-85
2021/12/16 05:32:20;;;;;;;43.00;26.97;;;11.30;99.90;;;;;;4888899;28;20461;-84
2021/12/16 05:34:47;;;;;;;38.27;25.23;;;11.60;99.90;;;;;;4906319;28;20456;-84
2021/12/16 05:37:34;;;;;;;39.33;23.70;;;11.50;99.90;;;;;;4921897;28;20516;-86
2021/12/16 05:40:04;;;;;;;44.80;25.60;;;11.70;99.90;;;;;;4957822;28;20491;-83
2021/12/16 05:42:48;;;;;;;37.70;26.37;;;11.50;99.90;;;;;;4950148;28;20456;-84
2021/12/16 05:45:27;;;;;;;41.87;26.10;;;11.30;99.90;;;;;;4950285;28;20499;-83
2021/12/16 05:48:10;;;;;;;37.80;24.90;;;11.20;99.90;;;;;;4952657;28;20961;-83
2021/12/16 05:50:42;;;;;;;33.13;22.97;;;11.10;99.90;;;;;;4964616;28;22218;-84
2021/12/16 05:53:19;;;;;;;39.03;24.10;;;11.30;99.90;;;;;;4964200;28;20459;-83
2021/12/16 05:55:56;;;;;;;34.30;24.30;;;11.60;99.90;;;;;;4963904;28;20503;-83
2021/12/16 05:58:28;;;;;;;33.23;24.43;;;11.50;99.90;;;;;;4934735;28;20533;-83
2021/12/16 06:04:21;;;;;;;36.23;24.10;;;11.80;99.90;;;;;;4943462;28;20460;-83
2021/12/16 06:06:51;;;;;;;40.27;26.00;;;11.80;99.90;;;;;;4943964;28;20491;-86
2021/12/16 06:09:22;;;;;;;40.63;24.50;;;11.80;99.90;;;;;;4940776;28;20499;-83
2021/12/16 06:11:51;;;;;;;40.37;26.00;;;11.90;99.90;;;;;;4946462;28;20728;-85
2021/12/16 06:14:48;;;;;;;35.80;23.17;;;11.80;99.90;;;;;;4942727;28;20471;-85
2021/12/16 06:28:34;;;;;;;41.43;26.40;;;11.60;99.90;;;;;;4907712;28;21059;-84
2021/12/16 06:31:04;;;;;;;40.13;26.53;;;11.70;99.90;;;;;;4941591;28;20465;-84
2021/12/16 06:33:31;;;;;;;41.80;26.40;;;11.70;99.90;;;;;;4939796;28;20988;-83
2021/12/16 06:35:58;;;;;;;40.47;25.80;;;11.80;99.90;;;;;;4941408;28;22477;-85
2021/12/16 06:38:25;;;;;;;49.93;30.67;;;11.60;99.90;;;;;;4942248;28;20596;-84
2021/12/16 06:40:54;;;;;;;48.80;29.57;;;11.50;99.90;;;;;;4944043;28;20471;-86
2021/12/16 06:43:22;;;;;;;45.03;28.00;;;11.20;99.90;;;;;;4948926;28;20472;-85
2021/12/16 06:45:51;;;;;;;44.33;28.23;;;11.20;99.90;;;;;;4951069;28;20856;-86
2021/12/16 06:48:24;;;;;;;46.60;27.67;;;11.20;99.90;;;;;;4937493;28;20463;-85
2021/12/16 06:50:59;;;;;;;42.83;27.13;;;11.10;99.90;;;;;;4940214;28;20818;-84
2021/12/16 06:53:32;;;;;;;47.73;28.17;;;11.10;99.90;;;;;;4946930;28;20464;-85
2021/12/16 06:56:16;;;;;;;42.07;27.87;;;11.00;99.90;;;;;;4943458;28;20484;-83
2021/12/16 06:58:50;;;;;;;43.60;27.77;;;11.10;99.90;;;;;;4944618;28;20465;-83
2021/12/16 07:04:10;;;;;;;41.70;26.67;;;11.10;99.90;;;;;;4946003;28;20511;-85
2021/12/16 07:06:58;;;;;;;40.37;28.70;;;11.00;99.90;;;;;;4947454;28;20488;-84
2021/12/16 07:09:27;;;;;;;45.83;27.30;;;11.00;99.90;;;;;;4949195;28;20445;-87
2021/12/16 07:12:36;;;;;;;42.53;27.27;;;11.00;99.90;;;;;;4944655;28;21051;-87
2021/12/16 07:15:18;;;;;;;43.87;28.77;;;11.00;99.90;;;;;;4941910;28;20456;-86
2021/12/16 07:17:59;;;;;;;40.03;28.40;;;11.20;99.90;;;;;;4936456;28;20523;-87
2021/12/16 07:20:40;;;;;;;50.20;28.23;;;11.10;99.90;;;;;;4939974;28;20464;-84
2021/12/16 07:23:22;;;;;;;49.60;29.60;;;11.40;99.90;;;;;;4938740;28;21051;-84
2021/12/16 07:26:01;;;;;;;40.70;28.50;;;11.40;99.90;;;;;;4935880;28;20503;-87
2021/12/16 07:29:00;;;;;;;;;;;;;;;;;;;;;
2021/12/16 07:31:51;;;;;;;48.30;30.70;;;11.60;99.90;;;;;;4915937;28;20448;-85
2021/12/16 07:34:33;;;;;;;47.57;30.07;;;11.90;99.90;;;;;;4941566;28;21029;-87
2021/12/16 07:37:13;;;;;;;43.90;28.83;;;11.90;99.90;;;;;;4940922;28;20497;-84
2021/12/16 07:39:56;;;;;;;49.00;30.67;;;12.00;99.90;;;;;;4943328;28;20524;-84
2021/12/16 07:42:31;;;;;;;48.93;30.13;;;12.00;99.90;;;;;;4933934;28;20456;-86
2021/12/16 07:51:38;;;;;;;42.63;28.60;;;11.80;99.90;;;;;;4936095;28;20459;-84
2021/12/16 07:54:16;;;;;;;44.93;30.33;;;11.80;99.90;;;;;;4941342;28;20449;-85
2021/12/16 07:57:06;;;;;;;46.07;30.47;;;11.80;99.90;;;;;;4906018;28;20505;-85
2021/12/16 07:59:39;;;;;;;46.93;29.93;;;11.60;99.90;;;;;;4889448;28;20465;-84
2021/12/16 08:02:34;;;;;;;48.63;30.63;;;11.40;99.90;;;;;;4851433;28;20524;-82
2021/12/16 08:05:26;;;;;;;50.43;31.77;;;11.30;99.90;;;;;;4841330;28;20465;-82
2021/12/16 08:08:02;;;;;;;48.03;31.37;;;11.70;99.90;;;;;;4872070;28;20467;-85
2021/12/16 08:11:00;;;;;;;50.93;32.47;;;11.60;99.90;;;;;;4920682;28;20466;-85
2021/12/16 08:14:02;;;;;;;52.43;30.93;;;11.80;99.90;;;;;;4921327;28;20464;-83
2021/12/16 08:16:39;;;;;;;48.97;30.17;;;11.80;99.90;;;;;;4908778;28;20589;-85
2021/12/16 08:19:06;;;;;;;49.40;30.10;;;11.60;99.90;;;;;;4918497;28;21327;-86
2021/12/16 08:21:44;;;;;;;47.37;31.40;;;11.40;99.90;;;;;;4923496;28;20879;-85
2021/12/16 08:24:40;;;;;;;52.43;29.90;;;11.80;99.90;;;;;;4916999;28;20553;-83
2021/12/16 08:27:15;;;;;;;49.70;30.40;;;11.80;99.90;;;;;;4931659;28;20482;-84
2021/12/16 08:29:51;;;;;;;44.20;29.37;;;11.70;99.90;;;;;;4848572;28;20598;-84
2021/12/16 08:34:00;;;;;;;41.17;27.60;;;11.80;99.90;;;;;;4827092;28;20453;-84
2021/12/16 08:36:49;;;;;;;37.90;26.20;;;11.80;99.90;;;;;;4804438;29;21237;-84
2021/12/16 08:43:51;;;;;;;41.97;27.90;;;11.60;99.90;;;;;;4790394;29;20828;-84
2021/12/16 08:47:34;;;;;;;36.80;25.50;;;11.70;99.90;;;;;;4858960;29;20558;-84
2021/12/16 08:51:03;;;;;;;38.50;25.90;;;11.50;99.90;;;;;;4768326;29;20498;-84
2021/12/16 08:54:16;;;;;;;42.80;29.03;;;11.40;99.90;;;;;;4770336;29;20451;-84
2021/12/16 08:57:21;;;;;;;37.00;26.87;;;11.40;99.90;;;;;;4895720;23;20500;-84
2021/12/16 09:00:27;;;;;;;34.53;26.20;;;11.40;99.90;;;;;;4915017;28;20460;-82
2021/12/16 09:03:14;;;;;;;37.57;25.87;;;11.40;99.90;;;;;;4932519;28;21346;-82
2021/12/16 09:09:47;;;;;;;34.70;24.00;;;11.40;99.90;;;;;;4879832;29;20447;-83
2021/12/16 09:15:51;;;;;;;37.30;25.73;;;11.60;99.90;;;;;;4861916;29;20981;-83
2021/12/16 09:18:55;;;;;;;41.87;27.30;;;11.80;99.90;;;;;;4849999;29;20490;-84
2021/12/16 09:21:40;;;;;;;40.43;27.07;;;11.60;99.90;;;;;;4863622;29;20479;-84
2021/12/16 09:24:44;;;;;;;39.50;24.90;;;11.40;99.90;;;;;;4879269;29;20503;-84
2021/12/16 09:27:20;;;;;;;36.20;24.07;;;11.40;99.90;;;;;;4874387;29;20566;-84
2021/12/16 09:30:03;;;;;;;38.67;25.63;;;11.60;99.90;;;;;;4878841;29;20541;-83
2021/12/16 09:32:52;;;;;;;35.40;24.40;;;11.60;99.90;;;;;;4863105;29;20475;-83
2021/12/16 09:35:35;;;;;;;36.40;24.70;;;11.60;99.90;;;;;;4864888;29;20855;-84
2021/12/16 09:38:03;;;;;;;36.43;24.03;;;11.70;99.90;;;;;;4895501;29;20467;-84
2021/12/16 09:40:36;;;;;;;37.00;25.07;;;11.70;99.90;;;;;;4892956;29;20466;-84
2021/12/16 09:43:04;;;;;;;39.20;27.30;;;11.70;99.90;;;;;;4905883;29;20459;-83
2021/12/16 09:46:00;;;;;;;40.27;27.93;;;11.60;99.90;;;;;;4938967;28;20464;-84
2021/12/16 09:48:50;;;;;;;38.20;25.50;;;11.90;99.90;;;;;;4957584;28;20553;-81
2021/12/16 09:51:23;;;;;;;40.13;27.00;;;11.80;99.90;;;;;;4941072;28;20493;-82
2021/12/16 09:54:23;;;;;;;39.37;26.57;;;11.90;99.90;;;;;;4936687;28;20489;-83
2021/12/16 09:56:51;;;;;;;42.07;26.40;;;12.10;99.90;;;;;;4939015;28;20567;-83
2021/12/16 09:59:34;;;;;;;44.80;27.13;;;12.30;99.90;;;;;;4930293;28;20468;-83
2021/12/16 10:02:12;;;;;;;48.53;29.30;;;12.50;99.90;;;;;;4936722;28;20456;-82
2021/12/16 10:04:46;;;;;;;38.60;27.30;;;12.40;99.90;;;;;;4939529;28;21108;-82
2021/12/16 10:07:34;;;;;;;45.43;27.40;;;12.20;99.90;;;;;;4941756;28;20848;-83
2021/12/16 10:10:30;;;;;;;44.63;26.13;;;12.10;99.90;;;;;;4937776;28;20468;-83
2021/12/16 10:19:01;;;;;;;42.80;27.87;;;11.70;99.90;;;;;;4842254;29;20481;-83
2021/12/16 10:21:28;;;;;;;41.13;26.73;;;11.70;99.90;;;;;;4809603;29;20445;-81
2021/12/16 10:23:55;;;;;;;41.93;27.27;;;11.70;99.90;;;;;;4798285;29;21854;-84
2021/12/16 10:26:28;;;;;;;46.33;28.50;;;11.70;99.90;;;;;;4805669;29;20485;-83
2021/12/16 10:29:02;;;;;;;46.43;29.13;;;11.80;99.90;;;;;;4787002;29;20480;-84
2021/12/16 10:31:36;;;;;;;46.67;29.73;;;11.70;99.90;;;;;;4897048;28;20448;-85
2021/12/16 10:34:06;;;;;;;41.43;26.77;;;11.80;99.90;;;;;;4944269;28;20452;-85
2021/12/16 10:36:40;;;;;;;44.07;28.43;;;11.80;99.90;;;;;;4948637;28;20493;-83
2021/12/16 10:39:22;;;;;;;45.30;29.07;;;11.70;99.90;;;;;;4945521;28;20464;-83
2021/12/16 10:42:07;;;;;;;40.87;26.27;;;11.80;99.90;;;;;;4950472;28;20465;-84
2021/12/16 10:44:39;;;;;;;41.93;27.57;;;11.70;99.90;;;;;;4948622;28;20555;-84
2021/12/16 10:47:16;;;;;;;41.67;25.77;;;11.70;99.90;;;;;;4939952;28;21014;-84
2021/12/16 10:49:52;;;;;;;46.30;27.17;;;11.60;99.90;;;;;;4929817;28;20464;-83
2021/12/16 10:52:27;;;;;;;43.57;29.80;;;11.60;99.90;;;;;;4936517;28;20520;-83
2021/12/16 10:54:55;;;;;;;55.77;34.33;;;11.60;99.90;;;;;;4938380;28;21430;-84
2021/12/16 10:57:29;;;;;;;46.80;29.30;;;11.60;99.90;;;;;;4933647;28;21527;-83
2021/12/16 10:59:56;;;;;;;43.70;28.37;;;11.60;99.90;;;;;;4933448;28;20881;-85
2021/12/16 11:02:33;;;;;;;39.87;26.67;;;11.60;99.90;;;;;;4935459;28;20461;-85
2021/12/16 11:05:11;;;;;;;39.23;26.07;;;11.60;99.90;;;;;;4935132;28;20470;-82
2021/12/16 11:07:42;;;;;;;37.90;25.70;;;11.70;99.90;;;;;;4937501;28;22001;-82
2021/12/16 11:10:27;;;;;;;41.37;27.60;;;11.70;99.90;;;;;;4933494;28;20475;-82
2021/12/16 11:12:56;;;;;;;40.73;25.40;;;11.80;99.90;;;;;;4935528;28;20474;-84
2021/12/16 11:15:38;;;;;;;38.30;24.60;;;12.00;99.90;;;;;;4930756;28;21066;-83
2021/12/16 11:18:09;;;;;;;42.77;25.53;;;11.90;99.90;;;;;;4932787;28;20995;-83
2021/12/16 11:20:59;;;;;;;40.20;24.37;;;11.80;99.90;;;;;;4933058;28;20468;-84
2021/12/16 11:23:37;;;;;;;42.40;26.43;;;11.90;99.90;;;;;;4931741;28;20472;-85
2021/12/16 11:26:33;;;;;;;38.57;25.47;;;11.90;99.90;;;;;;4877475;28;20635;-82
2021/12/16 11:29:17;;;;;;;41.20;25.97;;;11.90;99.90;;;;;;4931093;28;20462;-83
2021/12/16 11:32:33;;;;;;;38.90;26.60;;;11.90;99.90;;;;;;4855275;28;20475;-83
2021/12/16 11:35:37;;;;;;;39.30;26.03;;;12.00;99.90;;;;;;4883095;28;20445;-81
2021/12/16 11:38:44;;;;;;;39.00;26.50;;;12.10;99.90;;;;;;4899533;28;20787;-83
2021/12/16 11:41:39;;;;;;;38.00;26.27;;;12.10;99.90;;;;;;4924725;28;20456;-82
2021/12/16 11:44:11;;;;;;;39.27;25.07;;;12.00;99.90;;;;;;4940938;28;20536;-83
2021/12/16 11:46:56;;;;;;;39.03;26.93;;;12.10;99.90;;;;;;4931488;28;20857;-84
2021/12/16 11:49:30;;;;;;;41.73;26.10;;;12.00;99.90;;;;;;4934571;28;20460;-83
2021/12/16 11:52:37;;;;;;;40.60;26.07;;;12.10;99.90;;;;;;4935340;28;20547;-82
2021/12/16 11:56:06;;;;;;;;;;;;;;;;;;;;;
2021/12/16 12:02:21;;;;;;;47.50;30.17;;;12.10;99.90;;;;;;4942016;28;20460;-83
2021/12/16 12:09:07;;;;;;;41.63;27.90;;;12.30;99.90;;;;;;4835187;28;21937;-82
2021/12/16 12:13:08;;;;;;;39.07;25.13;;;12.00;99.90;;;;;;4890164;28;20436;-83
2021/12/16 12:16:30;;;;;;;41.07;26.33;;;11.90;99.90;;;;;;4869111;29;20492;-81
2021/12/16 12:19:22;;;;;;;43.70;27.87;;;11.80;99.90;;;;;;4886937;29;20566;-82
2021/12/16 12:22:13;;;;;;;40.70;28.80;;;11.80;99.90;;;;;;4895397;28;20952;-81
2021/12/16 12:28:13;;;;;;;43.10;28.80;;;11.80;99.90;;;;;;4927525;28;20582;-82
2021/12/16 12:31:10;;;;;;;43.63;28.90;;;11.80;99.90;;;;;;4936088;28;21026;-83
2021/12/16 12:37:31;;;;;;;43.63;28.97;;;11.90;99.90;;;;;;4939584;28;20559;-83
2021/12/16 12:41:00;;;;;;;52.57;31.33;;;12.00;99.90;;;;;;4938983;28;20789;-84
2021/12/16 12:44:19;;;;;;;;;;;;;;;;;;;;;
2021/12/16 12:48:05;;;;;;;52.03;28.47;;;12.00;99.90;;;;;;4914674;28;20683;-82
2021/12/16 12:51:04;;;;;;;42.07;25.53;;;12.00;99.90;;;;;;4859000;28;20475;-82
2021/12/16 12:54:05;;;;;;;43.13;26.30;;;12.00;99.90;;;;;;4841859;28;20452;-83
2021/12/16 12:59:51;;;;;;;43.80;26.17;;;12.10;99.90;;;;;;4929378;28;20485;-83
2021/12/16 13:02:27;;;;;;;45.33;30.37;;;12.40;99.90;;;;;;4937409;28;20462;-81
2021/12/16 13:05:20;;;;;;;48.43;29.20;;;12.70;99.90;;;;;;4934653;28;20461;-84
2021/12/16 13:07:55;;;;;;;46.17;30.47;;;13.00;99.90;;;;;;4928819;28;21173;-81
2021/12/16 13:10:41;;;;;;;46.73;29.40;;;12.90;99.90;;;;;;4929915;28;20506;-82
2021/12/16 13:27:32;;;;;;;47.30;29.37;;;12.70;99.90;;;;;;4936031;28;20524;-83
2021/12/16 13:30:18;;;;;;;50.00;31.47;;;12.60;99.90;;;;;;4925984;28;20519;-83
2021/12/16 13:33:46;;;;;;;44.73;28.90;;;12.60;99.90;;;;;;4931470;28;20452;-84
2021/12/16 13:36:02;;;;;;;44.00;29.00;;;12.50;99.90;;;;;;4929665;28;20484;-83
2021/12/16 13:38:42;;;;;;;51.07;30.57;;;12.40;99.90;;;;;;4938723;28;20488;-82
2021/12/16 13:41:30;;;;;;;45.77;29.17;;;12.40;99.90;;;;;;4944334;28;20456;-82
2021/12/16 13:45:01;;;;;;;50.60;32.40;;;12.70;99.90;;;;;;4948064;28;20436;-82
2021/12/16 13:48:05;;;;;;;54.80;31.30;;;12.80;99.90;;;;;;4910711;28;20468;-83
2021/12/16 14:04:07;;;;;;;51.90;33.07;;;13.00;99.90;;;;;;4917179;28;20430;-83
2021/12/16 14:51:22;;;;;;;52.97;32.50;;;12.30;99.90;;;;;;4875977;29;20458;-81
2021/12/16 14:54:15;;;;;;;51.77;33.27;;;12.60;99.90;;;;;;4895576;29;20442;-83
2021/12/16 14:58:13;;;;;;;;;;;;;;;;;;;;;
2021/12/16 15:01:48;;;;;;;60.33;34.70;;;12.70;99.90;;;;;;4870158;28;20480;-83
2021/12/16 15:04:32;;;;;;;61.90;35.63;;;12.80;99.90;;;;;;4833764;28;20480;-84
2021/12/16 15:07:08;;;;;;;55.53;32.63;;;12.70;99.90;;;;;;4845389;28;20488;-83
2021/12/16 15:09:43;;;;;;;63.43;33.80;;;12.50;99.90;;;;;;4843763;28;21616;-84
2021/12/16 15:12:26;;;;;;;57.33;35.17;;;12.40;99.90;;;;;;4916626;28;20544;-81
2021/12/16 15:15:24;;;;;;;60.53;33.70;;;12.30;99.90;;;;;;4903337;28;22699;-84
2021/12/16 15:38:36;;;;;;;59.50;33.90;;;12.20;99.90;;;;;;4946427;28;20461;-83
2021/12/16 15:43:56;;;;;;;55.30;33.13;;;12.50;99.90;;;;;;4947103;28;20457;-83
2021/12/16 15:46:29;;;;;;;55.43;30.27;;;12.30;99.90;;;;;;4940992;28;20484;-81
2021/12/16 15:48:56;;;;;;;56.37;33.47;;;12.40;99.90;;;;;;4943735;28;20511;-83
2021/12/16 15:51:26;;;;;;;57.80;33.10;;;12.30;99.90;;;;;;4956614;28;20480;-84
2021/12/16 15:54:32;;;;;;;61.33;34.20;;;12.30;99.90;;;;;;4967991;28;20446;-83
2021/12/16 15:57:00;;;;;;;57.30;32.50;;;12.40;99.90;;;;;;4963964;28;20547;-83
2021/12/16 15:59:48;;;;;;;56.50;33.60;;;12.50;99.90;;;;;;4963763;28;20507;-80
2021/12/16 16:02:27;;;;;;;68.20;35.40;;;12.60;99.90;;;;;;4944981;28;20461;-83
2021/12/16 16:04:54;;;;;;;64.87;34.00;;;12.70;99.90;;;;;;4907725;28;20461;-84
2021/12/16 16:07:23;;;;;;;66.70;36.90;;;12.50;99.90;;;;;;4937587;28;20528;-83
2021/12/16 16:09:55;;;;;;;59.77;33.40;;;12.50;99.90;;;;;;4880984;28;20460;-82
2021/12/16 16:12:57;;;;;;;58.27;34.70;;;12.50;99.90;;;;;;4889753;28;20488;-83
2021/12/16 16:15:49;;;;;;;57.43;33.40;;;12.60;99.90;;;;;;4946129;28;20456;-82
2021/12/16 16:21:19;;;;;;;66.57;38.47;;;12.20;99.90;;;;;;4948170;28;20508;-82
2021/12/16 16:24:13;;;;;;;64.93;36.93;;;12.30;99.90;;;;;;4939513;28;22043;-85
2021/12/16 16:26:57;;;;;;;68.97;37.87;;;12.20;99.90;;;;;;4936418;28;20481;-83
2021/12/16 16:29:28;;;;;;;70.90;41.77;;;12.20;99.90;;;;;;4943453;28;20500;-82
2021/12/16 16:31:59;;;;;;;69.97;40.73;;;12.40;99.90;;;;;;4948565;28;22165;-84
2021/12/16 16:35:00;;;;;;;76.47;43.13;;;12.50;99.90;;;;;;4946008;28;20464;-84
2021/12/16 16:37:43;;;;;;;72.03;36.87;;;12.50;99.90;;;;;;4948368;28;20496;-83
2021/12/16 16:40:24;;;;;;;71.47;36.37;;;12.60;99.90;;;;;;4948578;28;20493;-82
2021/12/16 16:43:30;;;;;;;71.27;35.00;;;12.40;99.90;;;;;;4945183;28;20963;-84
2021/12/16 16:46:19;;;;;;;70.17;36.10;;;12.30;99.90;;;;;;4920641;28;20500;-82
2021/12/16 16:49:13;;;;;;;64.23;38.43;;;12.30;99.90;;;;;;4941918;28;20458;-83
2021/12/16 16:51:57;;;;;;;63.77;35.40;;;12.20;99.90;;;;;;4940419;28;20576;-83
2021/12/16 16:56:03;;;;;;;;;;;;;;;;;;;;;
2021/12/16 16:59:47;;;;;;;69.13;37.03;;;12.10;99.90;;;;;;4933003;28;20488;-83
2021/12/16 17:02:55;;;;;;;68.67;35.60;;;12.50;99.90;;;;;;4934513;28;20452;-84
2021/12/16 17:05:53;;;;;;;63.00;33.80;;;12.40;99.90;;;;;;4947771;28;20453;-84
2021/12/16 17:08:57;;;;;;;61.47;35.90;;;12.10;99.90;;;;;;4932535;28;20738;-85
2021/12/16 17:11:49;;;;;;;59.63;34.20;;;12.20;99.90;;;;;;4935201;28;20556;-86
2021/12/16 17:14:51;;;;;;;64.30;36.83;;;12.30;99.90;;;;;;4954242;28;20776;-83
2021/12/16 17:17:48;;;;;;;67.60;36.17;;;12.40;99.90;;;;;;4938949;28;20539;-88
2021/12/16 17:21:00;;;;;;;67.63;37.23;;;12.20;99.90;;;;;;4914778;28;21518;-91
2021/12/16 17:24:31;;;;;;;58.90;33.77;;;12.00;99.90;;;;;;4876167;28;20456;-91
2021/12/16 17:27:31;;;;;;;67.17;33.10;;;11.90;99.90;;;;;;4944001;28;21387;-89
2021/12/16 17:30:03;;;;;;;63.13;34.33;;;12.00;99.90;;;;;;4950584;28;20563;-89
2021/12/16 17:32:46;;;;;;;62.87;36.33;;;12.30;99.90;;;;;;4963545;28;20978;-87
2021/12/16 17:35:31;;;;;;;76.17;39.57;;;12.30;99.90;;;;;;4957288;28;20511;-87
2021/12/16 17:38:03;;;;;;;69.90;37.20;;;12.40;99.90;;;;;;4959262;28;20464;-86
2021/12/16 17:40:54;;;;;;;61.03;36.37;;;12.40;99.90;;;;;;4962192;28;20616;-89
2021/12/16 17:43:29;;;;;;;68.93;36.60;;;12.40;99.90;;;;;;4959433;28;20452;-86
2021/12/16 17:46:14;;;;;;;73.30;37.47;;;12.40;99.90;;;;;;4963587;28;20481;-90
2021/12/16 17:48:56;;;;;;;72.70;37.33;;;12.30;99.90;;;;;;4973015;28;20451;-85
2021/12/16 17:51:28;;;;;;;73.43;36.90;;;12.20;99.90;;;;;;4949862;28;20582;-85
2021/12/16 17:54:12;;;;;;;72.47;38.00;;;12.20;99.90;;;;;;4946501;28;20454;-87
2021/12/16 17:56:59;;;;;;;65.47;38.40;;;11.90;99.90;;;;;;4946398;28;20488;-86
2021/12/16 17:59:34;;;;;;;71.27;35.90;;;12.20;99.90;;;;;;4935813;28;21038;-86
2021/12/16 18:02:08;;;;;;;67.70;37.00;;;12.20;99.90;;;;;;4947442;28;20548;-87
2021/12/16 18:04:50;;;;;;;66.37;36.20;;;12.10;99.90;;;;;;4943770;28;20472;-82
2021/12/16 18:07:29;;;;;;;66.30;36.53;;;12.00;99.90;;;;;;4945447;28;20608;-84
2021/12/16 18:10:12;;;;;;;67.97;38.30;;;12.00;99.90;;;;;;4951726;28;20454;-88
2021/12/16 18:12:47;;;;;;;64.73;36.17;;;12.20;99.90;;;;;;4954436;28;20524;-86
2021/12/16 18:15:31;;;;;;;65.53;36.70;;;12.30;99.90;;;;;;4965111;28;20544;-89
2021/12/16 18:18:27;;;;;;;74.10;40.80;;;12.30;99.90;;;;;;4964324;28;21234;-87
2021/12/16 18:21:31;;;;;;;71.97;36.63;;;12.20;99.90;;;;;;4954324;28;20445;-90
2021/12/16 18:24:36;;;;;;;74.17;37.30;;;12.30;99.90;;;;;;4912603;28;20518;-83
2021/12/16 18:27:56;;;;;;;69.73;37.97;;;12.30;99.90;;;;;;4877275;28;21019;-84
2021/12/16 18:30:35;;;;;;;68.13;36.60;;;12.30;99.90;;;;;;4857689;28;20461;-84